Flight Track Log - Related Links

Times and Time Zones

All times are in EDT time to prevent confusion due to time zone crossing. See the EJA929 flight status page for this flight to view local times or setup timezone preferences in your user account.


Time Position Orientation Groundspeed Altitude Reporting Facility
EDT Latitude Longitude Course Direction KTS MPH feet Rate Location/Type
Fri 11:54:32 AM 42.6000 -70.9333 324° Northwest 173 199 1,400  Level KA90
Fri 11:55:32 AM 42.6500 -70.9833 324° Northwest 207 238 3,000 2,400 Climbing KA90
Fri 11:56:32 AM 42.6167 -71.0667 241° Southwest 235 270 6,200 3,706 Climbing KA90
Fri 11:58:22 AM 42.5272 -71.2117 230° Southwest 294 338 13,500 2,737 Climbing Boston Center
Fri 11:59:23 AM 42.4656 -71.2947 225° Southwest 333 383 14,000 545 Climbing Boston Center
Fri 12:00:23 PM 42.3664 -71.3864 214° Southwest 387 445 14,600 992 Climbing Boston Center
Fri 12:01:24 PM 42.2817 -71.4608 213° Southwest 408 470 16,000 1,513 Climbing Boston Center
Fri 12:02:22 PM 42.1822 -71.5519 214° Southwest 408 470 17,600 1,412 Climbing Boston Center
Fri 12:03:23 PM 42.1056 -71.6203 213° Southwest 408 470 18,800 1,377 Climbing Boston Center
Fri 12:04:24 PM 42.0042 -71.7164 215° Southwest 413 475 20,400 1,537 Climbing Boston Center
Fri 12:05:24 PM 41.9108 -71.8011 214° Southwest 418 481 21,900 814 Climbing Boston Center
Fri 12:06:22 PM 41.8175 -71.8858 214° Southwest 418 481 22,000 50 Climbing Boston Center
Fri 12:07:23 PM 41.7181 -71.9728 213° Southwest 424 488 22,000  Level Boston Center
Fri 12:08:24 PM 41.6100 -72.0708 214° Southwest 424 488 22,000  Level Boston Center
Fri 12:09:22 PM 41.5103 -72.1600 214° Southwest 429 494 22,000  Level Boston Center
Fri 12:10:23 PM 41.4061 -72.2547 214° Southwest 442 509 22,000  Level Boston Center
Fri 12:11:35 PM 41.3144 -72.3267 211° Southwest 442 509 22,000  Level Boston Center
Fri 12:12:48 PM 41.1644 -72.4650 215° Southwest 443 510 22,000  Level Boston Center
Fri 12:13:48 PM 41.0625 -72.5503 212° Southwest 443 510 22,000  Level Boston Center
Fri 12:14:48 PM 40.9603 -72.6461 215° Southwest 443 510 22,000  Level Boston Center
Fri 12:15:46 PM 40.8578 -72.7336 213° Southwest 448 516 22,000  Level Boston Center
Fri 12:16:46 PM 40.7533 -72.8181 211° Southwest 442 509 22,000  Level Boston Center
Fri 12:17:46 PM 40.6489 -72.9050 212° Southwest 442 509 22,000 -213 Level Boston Center
Fri 12:19:07 PM 40.5236 -73.0181 214° Southwest 451 519 21,500 -2,383 Descending New York Center
Fri 12:20:07 PM 40.4156 -73.1128 214° Southwest 439 505 16,400 -2,727 Descending New York Center
Fri 12:21:08 PM 40.3267 -73.1858 212° Southwest 434 499 16,000 -893 Descending New York Center
Fri 12:22:08 PM 40.2428 -73.3025 227° Southwest 412 474 14,600 -2,200 Descending New York Center
Fri 12:23:08 PM 40.1825 -73.3900 228° Southwest 383 441 11,600 -2,067 Descending New York Center
Fri 12:24:07 PM 40.1181 -73.4853 229° Southwest 340 391 10,500 -1,462 Descending New York Center
Fri 12:25:07 PM 40.0544 -73.5261 206° Southwest 297 342 8,700 -1,240 Descending New York Center
Fri 12:26:08 PM 39.9867 -73.5775 210° Southwest 290 334 8,000 -1,050 Descending New York Center
Fri 12:27:07 PM 39.9903 -73.6753 273° West 242 278 6,600 -1,714 Descending New York Center
Fri 12:28:07 PM 40.0022 -73.7814 278° West 249 287 4,600 -1,513 Descending New York Center
Fri 12:29:06 PM 40.0061 -73.8711 273° West 268 308 3,600 -800 Descending New York Center
Fri 12:30:07 PM 40.0369 -73.9647 293° West 269 310 3,000 -298 Descending New York Center
Fri 12:31:07 PM 40.0639 -74.0500 292° West 259 298 3,000  Level New York Center
Fri 12:32:09 PM 40.0906 -74.1381 292° West 259 298 3,000  Level New York Center
Fri 12:33:06 PM 40.1133 -74.2125 292° West 254 292 3,000  Level New York Center
Fri 12:34:07 PM 40.1403 -74.2953 293° West 249 287 3,000  Level New York Center
Fri 12:35:08 PM 40.1706 -74.3917 292° West 259 298 3,000  Level New York Center
Fri 12:36:08 PM 40.1950 -74.4772 291° West 254 292 3,000  Level New York Center
Fri 12:37:08 PM 40.2089 -74.5678 281° West 254 292 3,000 -50 Level New York Center
Fri 12:38:07 PM 40.1936 -74.6511 257° West 236 272 2,900  Descending New York Center
Fri 12:39:07 PM 40.1767 -74.7236 253° West 224 258 3,000 50 Climbing New York Center
Fri 12:40:08 PM 40.1639 -74.7933 257° West 213 245 3,000  Level New York Center
Fri 12:41:08 PM 40.1467 -74.8658 253° West 208 239 3,000  Level New York Center
Fri 12:42:06 PM 40.1381 -74.9331 261° West 198 228 3,000  Level New York Center
Fri 12:43:07 PM 40.1317 -74.9981 263° West 193 222 3,000 -155 Level New York Center
Fri 12:44:02 PM 40.1167 -75.0500 249° West 179 206 2,700 -574 Descending Philadelphia TRACON
Fri 12:45:02 PM 40.0833 -75.0833 217° Southwest 171 197 1,900 -652 Descending Philadelphia TRACON
Fri 12:47:06 PM 40.0453 -75.0225 129° Southeast 98 113 700 -581 Descending New York Center
Fri 12:49:00 PM 40.0667 -75.0000 197° South  Level FlightAware Approximate

Login

Don't have an account? Register now (free) for customized features, flight alerts, and more!